sensor_id;sensor_type;location;lat;lon;timestamp;pressure;altitude;pressure_sealevel;temperature;humidity
13050;BME280;6591;51.446;5.404;2023-06-22T00:00:20;101529.53;;;25.97;38.88
13050;BME280;6591;51.446;5.404;2023-06-22T00:02:48;101523.22;;;25.96;39.27
13050;BME280;6591;51.446;5.404;2023-06-22T00:05:15;101526.13;;;25.95;39.50
13050;BME280;6591;51.446;5.404;2023-06-22T00:07:42;101532.72;;;25.92;39.47
13050;BME280;6591;51.446;5.404;2023-06-22T00:10:09;101540.88;;;25.92;39.20
13050;BME280;6591;51.446;5.404;2023-06-22T00:12:37;101545.66;;;25.90;39.10
13050;BME280;6591;51.446;5.404;2023-06-22T00:15:05;101536.75;;;25.88;39.25
13050;BME280;6591;51.446;5.404;2023-06-22T00:17:32;101543.34;;;25.86;39.40
13050;BME280;6591;51.446;5.404;2023-06-22T00:19:59;101542.81;;;25.82;39.70
13050;BME280;6591;51.446;5.404;2023-06-22T00:22:27;101542.25;;;25.79;39.44
13050;BME280;6591;51.446;5.404;2023-06-22T00:24:57;101537.97;;;25.76;39.46
13050;BME280;6591;51.446;5.404;2023-06-22T00:27:24;101538.28;;;25.73;39.50
13050;BME280;6591;51.446;5.404;2023-06-22T00:29:51;101532.28;;;25.69;39.50
13050;BME280;6591;51.446;5.404;2023-06-22T00:32:18;101533.44;;;25.67;39.69
13050;BME280;6591;51.446;5.404;2023-06-22T00:34:47;101534.75;;;25.63;39.71
13050;BME280;6591;51.446;5.404;2023-06-22T00:37:14;101523.47;;;25.58;39.92
13050;BME280;6591;51.446;5.404;2023-06-22T00:39:43;101525.72;;;25.53;39.72
13050;BME280;6591;51.446;5.404;2023-06-22T00:42:11;101520.88;;;25.47;39.93
13050;BME280;6591;51.446;5.404;2023-06-22T00:44:38;101524.06;;;25.42;40.05
13050;BME280;6591;51.446;5.404;2023-06-22T00:47:05;101522.78;;;25.37;40.31
13050;BME280;6591;51.446;5.404;2023-06-22T00:49:33;101514.09;;;25.33;40.47
13050;BME280;6591;51.446;5.404;2023-06-22T00:52:01;101512.63;;;25.29;40.57
13050;BME280;6591;51.446;5.404;2023-06-22T00:54:30;101519.53;;;25.23;40.91
13050;BME280;6591;51.446;5.404;2023-06-22T00:56:58;101515.53;;;25.18;40.58
13050;BME280;6591;51.446;5.404;2023-06-22T00:59:27;101515.84;;;25.15;40.83
13050;BME280;6591;51.446;5.404;2023-06-22T01:01:55;101516.97;;;25.12;41.01
13050;BME280;6591;51.446;5.404;2023-06-22T01:04:34;101515.88;;;25.05;41.43
13050;BME280;6591;51.446;5.404;2023-06-22T01:07:27;101511.31;;;24.96;41.37
13050;BME280;6591;51.446;5.404;2023-06-22T01:10:07;101519.59;;;24.95;41.28
13050;BME280;6591;51.446;5.404;2023-06-22T01:12:45;101512.75;;;24.91;41.83
13050;BME280;6591;51.446;5.404;2023-06-22T01:15:25;101518.31;;;24.89;42.05
13050;BME280;6591;51.446;5.404;2023-06-22T01:17:57;101521.91;;;24.89;42.00
13050;BME280;6591;51.446;5.404;2023-06-22T01:20:27;101515.75;;;24.87;41.91
13050;BME280;6591;51.446;5.404;2023-06-22T01:23:26;101522.44;;;24.83;42.41
13050;BME280;6591;51.446;5.404;2023-06-22T01:28:47;101506.47;;;24.90;42.42
13050;BME280;6591;51.446;5.404;2023-06-22T01:31:19;101517.03;;;24.93;42.58
13050;BME280;6591;51.446;5.404;2023-06-22T01:33:53;101519.31;;;24.98;42.88
13050;BME280;6591;51.446;5.404;2023-06-22T01:36:23;101521.56;;;25.02;42.60
13050;BME280;6591;51.446;5.404;2023-06-22T01:38:53;101518.72;;;25.04;42.58
13050;BME280;6591;51.446;5.404;2023-06-22T01:41:24;101515.88;;;25.05;42.40
13050;BME280;6591;51.446;5.404;2023-06-22T01:43:54;101508.56;;;25.06;42.57
13050;BME280;6591;51.446;5.404;2023-06-22T01:46:24;101493.13;;;25.06;42.83
13050;BME280;6591;51.446;5.404;2023-06-22T01:48:53;101504.13;;;25.05;43.00
13050;BME280;6591;51.446;5.404;2023-06-22T01:51:22;101503.28;;;25.04;42.71
13050;BME280;6591;51.446;5.404;2023-06-22T01:53:49;101501.56;;;25.03;43.05
13050;BME280;6591;51.446;5.404;2023-06-22T01:56:19;101502.41;;;25.04;42.73
13050;BME280;6591;51.446;5.404;2023-06-22T01:59:04;101506.31;;;25.01;43.21
13050;BME280;6591;51.446;5.404;2023-06-22T02:01:43;101507.84;;;25.04;43.40
13050;BME280;6591;51.446;5.404;2023-06-22T02:04:25;101502.56;;;25.02;43.36
13050;BME280;6591;51.446;5.404;2023-06-22T02:06:58;101503.28;;;25.04;43.31
13050;BME280;6591;51.446;5.404;2023-06-22T02:09:30;101500.56;;;25.04;43.23
13050;BME280;6591;51.446;5.404;2023-06-22T02:12:02;101501.41;;;25.05;43.28
13050;BME280;6591;51.446;5.404;2023-06-22T02:14:30;101499.56;;;25.05;43.58
13050;BME280;6591;51.446;5.404;2023-06-22T02:16:57;101494.13;;;25.05;43.56
13050;BME280;6591;51.446;5.404;2023-06-22T02:19:27;101492.41;;;25.04;43.75
13050;BME280;6591;51.446;5.404;2023-06-22T02:21:55;101491.69;;;25.02;43.76
13050;BME280;6591;51.446;5.404;2023-06-22T02:24:22;101492.72;;;25.01;43.58
13050;BME280;6591;51.446;5.404;2023-06-22T02:26:50;101495.56;;;25.00;43.66
13050;BME280;6591;51.446;5.404;2023-06-22T02:29:17;101493.84;;;24.99;44.11
13050;BME280;6591;51.446;5.404;2023-06-22T02:31:44;101492.28;;;24.96;43.65
13050;BME280;6591;51.446;5.404;2023-06-22T02:34:12;101486.13;;;24.94;43.65
13050;BME280;6591;51.446;5.404;2023-06-22T02:36:46;101477.44;;;24.91;44.05
13050;BME280;6591;51.446;5.404;2023-06-22T02:39:24;101473.13;;;24.88;44.02
13050;BME280;6591;51.446;5.404;2023-06-22T02:41:55;101475.13;;;24.86;44.15
13050;BME280;6591;51.446;5.404;2023-06-22T02:44:22;101475.25;;;24.84;44.10
13050;BME280;6591;51.446;5.404;2023-06-22T02:46:49;101472.81;;;24.81;43.92
13050;BME280;6591;51.446;5.404;2023-06-22T02:49:17;101468.53;;;24.79;44.35
13050;BME280;6591;51.446;5.404;2023-06-22T02:51:48;101474.25;;;24.76;43.87
13050;BME280;6591;51.446;5.404;2023-06-22T02:54:18;101479.00;;;24.74;44.41
13050;BME280;6591;51.446;5.404;2023-06-22T02:56:49;101484.69;;;24.71;44.45
13050;BME280;6591;51.446;5.404;2023-06-22T02:59:18;101486.00;;;24.67;44.36
13050;BME280;6591;51.446;5.404;2023-06-22T03:01:52;101476.44;;;24.63;44.80
13050;BME280;6591;51.446;5.404;2023-06-22T03:04:26;101462.13;;;24.61;44.79
13050;BME280;6591;51.446;5.404;2023-06-22T03:06:54;101458.00;;;24.57;44.48
13050;BME280;6591;51.446;5.404;2023-06-22T03:09:21;101461.69;;;24.56;45.05
13050;BME280;6591;51.446;5.404;2023-06-22T03:11:48;101452.13;;;24.52;45.00
13050;BME280;6591;51.446;5.404;2023-06-22T03:14:16;101460.41;;;24.50;45.01
13050;BME280;6591;51.446;5.404;2023-06-22T03:16:43;101445.28;;;24.47;44.97
13050;BME280;6591;51.446;5.404;2023-06-22T03:19:11;101449.13;;;24.45;45.13
13050;BME280;6591;51.446;5.404;2023-06-22T03:21:38;101448.44;;;24.43;45.25
13050;BME280;6591;51.446;5.404;2023-06-22T03:24:06;101438.69;;;24.40;45.35
13050;BME280;6591;51.446;5.404;2023-06-22T03:26:34;101439.00;;;24.37;45.26
13050;BME280;6591;51.446;5.404;2023-06-22T03:29:02;101437.28;;;24.36;45.55
13050;BME280;6591;51.446;5.404;2023-06-22T03:31:30;101438.59;;;24.32;45.54
13050;BME280;6591;51.446;5.404;2023-06-22T03:33:57;101427.00;;;24.30;45.68
13050;BME280;6591;51.446;5.404;2023-06-22T03:36:24;101429.00;;;24.28;45.63
13050;BME280;6591;51.446;5.404;2023-06-22T03:38:53;101432.00;;;24.25;45.93
13050;BME280;6591;51.446;5.404;2023-06-22T03:41:20;101427.72;;;24.23;45.67
13050;BME280;6591;51.446;5.404;2023-06-22T03:43:49;101426.16;;;24.20;45.93
13050;BME280;6591;51.446;5.404;2023-06-22T03:46:17;101421.88;;;24.18;46.29
13050;BME280;6591;51.446;5.404;2023-06-22T03:48:44;101422.97;;;24.15;46.27
13050;BME280;6591;51.446;5.404;2023-06-22T03:51:11;101435.53;;;24.16;45.99
13050;BME280;6591;51.446;5.404;2023-06-22T03:53:39;101424.69;;;24.16;46.09
13050;BME280;6591;51.446;5.404;2023-06-22T03:56:06;101428.41;;;24.15;46.17
13050;BME280;6591;51.446;5.404;2023-06-22T03:58:33;101435.53;;;24.16;46.16
13050;BME280;6591;51.446;5.404;2023-06-22T04:01:03;101435.53;;;24.16;46.27
13050;BME280;6591;51.446;5.404;2023-06-22T04:03:30;101443.59;;;24.18;46.43
13050;BME280;6591;51.446;5.404;2023-06-22T04:05:57;101434.59;;;24.17;46.35
13050;BME280;6591;51.446;5.404;2023-06-22T04:08:24;101428.00;;;24.20;46.72
13050;BME280;6591;51.446;5.404;2023-06-22T04:10:52;101430.56;;;24.21;46.59
13050;BME280;6591;51.446;5.404;2023-06-22T04:13:19;101439.28;;;24.25;46.56
13050;BME280;6591;51.446;5.404;2023-06-22T04:15:47;101423.59;;;24.28;46.53
13050;BME280;6591;51.446;5.404;2023-06-22T04:18:15;101422.13;;;24.34;46.75
13050;BME280;6591;51.446;5.404;2023-06-22T04:20:42;101422.72;;;24.37;46.66
13050;BME280;6591;51.446;5.404;2023-06-22T04:23:13;101425.84;;;24.42;46.70
13050;BME280;6591;51.446;5.404;2023-06-22T04:25:40;101436.28;;;24.47;47.10
13050;BME280;6591;51.446;5.404;2023-06-22T04:28:07;101427.56;;;24.53;46.67
13050;BME280;6591;51.446;5.404;2023-06-22T04:30:39;101427.84;;;24.60;46.74
13050;BME280;6591;51.446;5.404;2023-06-22T04:33:15;101423.66;;;24.65;46.83
13050;BME280;6591;51.446;5.404;2023-06-22T04:35:45;101433.81;;;24.73;47.19
13050;BME280;6591;51.446;5.404;2023-06-22T04:38:13;101430.38;;;24.80;46.96
13050;BME280;6591;51.446;5.404;2023-06-22T04:40:40;101424.06;;;24.89;46.98
13050;BME280;6591;51.446;5.404;2023-06-22T04:43:07;101430.31;;;25.00;46.99
13050;BME280;6591;51.446;5.404;2023-06-22T04:45:37;101428.56;;;25.08;47.07
13050;BME280;6591;51.446;5.404;2023-06-22T04:48:05;101440.25;;;25.18;46.52
13050;BME280;6591;51.446;5.404;2023-06-22T04:50:32;101436.50;;;25.29;46.95
13050;BME280;6591;51.446;5.404;2023-06-22T04:52:59;101442.75;;;25.39;47.22
13050;BME280;6591;51.446;5.404;2023-06-22T04:55:27;101432.66;;;25.49;46.54
13050;BME280;6591;51.446;5.404;2023-06-22T04:57:54;101434.53;;;25.58;46.33
13050;BME280;6591;51.446;5.404;2023-06-22T05:00:21;101430.19;;;25.65;46.55
13050;BME280;6591;51.446;5.404;2023-06-22T05:02:50;101433.00;;;25.73;46.57
13050;BME280;6591;51.446;5.404;2023-06-22T05:05:17;101427.63;;;25.82;46.02
13050;BME280;6591;51.446;5.404;2023-06-22T05:07:46;101425.16;;;25.88;46.26
13050;BME280;6591;51.446;5.404;2023-06-22T05:10:17;101426.81;;;25.99;45.83
13050;BME280;6591;51.446;5.404;2023-06-22T05:12:46;101424.16;;;26.07;45.95
13050;BME280;6591;51.446;5.404;2023-06-22T05:15:13;101423.25;;;26.16;45.92
13050;BME280;6591;51.446;5.404;2023-06-22T05:17:42;101422.47;;;26.24;45.83
13050;BME280;6591;51.446;5.404;2023-06-22T05:20:13;101419.44;;;26.27;45.17
13050;BME280;6591;51.446;5.404;2023-06-22T05:22:40;101426.44;;;26.29;45.45
13050;BME280;6591;51.446;5.404;2023-06-22T05:25:10;101420.84;;;26.31;45.35
13050;BME280;6591;51.446;5.404;2023-06-22T05:27:37;101427.16;;;26.31;45.00
13050;BME280;6591;51.446;5.404;2023-06-22T05:30:07;101421.84;;;26.30;45.45
13050;BME280;6591;51.446;5.404;2023-06-22T05:32:36;101424.56;;;26.30;45.51
13050;BME280;6591;51.446;5.404;2023-06-22T05:35:04;101419.13;;;26.30;45.22
13050;BME280;6591;51.446;5.404;2023-06-22T05:37:31;101420.13;;;26.29;45.47
13050;BME280;6591;51.446;5.404;2023-06-22T05:39:58;101421.84;;;26.30;45.09
13050;BME280;6591;51.446;5.404;2023-06-22T05:42:25;101423.41;;;26.32;45.12
13050;BME280;6591;51.446;5.404;2023-06-22T05:44:53;101414.06;;;26.35;45.02
13050;BME280;6591;51.446;5.404;2023-06-22T05:47:20;101416.16;;;26.41;45.23
13050;BME280;6591;51.446;5.404;2023-06-22T05:49:47;101423.72;;;26.47;45.15
13050;BME280;6591;51.446;5.404;2023-06-22T05:52:14;101415.97;;;26.60;45.42
13050;BME280;6591;51.446;5.404;2023-06-22T05:54:41;101423.19;;;26.69;45.53
13050;BME280;6591;51.446;5.404;2023-06-22T05:57:10;101426.34;;;26.82;44.90
13050;BME280;6591;51.446;5.404;2023-06-22T05:59:37;101419.47;;;26.96;45.49
13050;BME280;6591;51.446;5.404;2023-06-22T06:02:05;101421.59;;;27.10;45.09
13050;BME280;6591;51.446;5.404;2023-06-22T06:04:32;101427.28;;;27.25;45.43
13050;BME280;6591;51.446;5.404;2023-06-22T06:06:59;101427.31;;;27.33;45.31
13050;BME280;6591;51.446;5.404;2023-06-22T06:09:28;101428.03;;;27.43;44.98
13050;BME280;6591;51.446;5.404;2023-06-22T06:11:54;101420.44;;;27.55;44.65
13050;BME280;6591;51.446;5.404;2023-06-22T06:14:22;101425.75;;;27.64;44.34
13050;BME280;6591;51.446;5.404;2023-06-22T06:16:49;101412.81;;;27.74;44.51
13050;BME280;6591;51.446;5.404;2023-06-22T06:19:16;101421.06;;;27.83;44.12
13050;BME280;6591;51.446;5.404;2023-06-22T06:21:43;101413.06;;;27.89;44.42
13050;BME280;6591;51.446;5.404;2023-06-22T06:24:10;101412.03;;;27.98;43.77
13050;BME280;6591;51.446;5.404;2023-06-22T06:26:37;101404.03;;;28.05;43.93
13050;BME280;6591;51.446;5.404;2023-06-22T06:29:06;101413.25;;;28.12;43.85
13050;BME280;6591;51.446;5.404;2023-06-22T06:31:33;101415.00;;;28.21;43.99
13050;BME280;6591;51.446;5.404;2023-06-22T06:34:01;101414.63;;;28.32;43.42
13050;BME280;6591;51.446;5.404;2023-06-22T06:36:28;101410.91;;;28.41;43.47
13050;BME280;6591;51.446;5.404;2023-06-22T06:38:55;101421.50;;;28.52;43.64
13050;BME280;6591;51.446;5.404;2023-06-22T06:41:22;101424.56;;;28.57;43.64
13050;BME280;6591;51.446;5.404;2023-06-22T06:43:50;101415.16;;;28.60;43.27
13050;BME280;6591;51.446;5.404;2023-06-22T06:46:17;101417.19;;;28.66;43.01
13050;BME280;6591;51.446;5.404;2023-06-22T06:48:46;101422.13;;;28.71;42.68
13050;BME280;6591;51.446;5.404;2023-06-22T06:51:14;101419.28;;;28.72;43.26
13050;BME280;6591;51.446;5.404;2023-06-22T06:53:41;101420.13;;;28.73;42.53
13050;BME280;6591;51.446;5.404;2023-06-22T06:56:08;101416.66;;;28.71;42.63
13050;BME280;6591;51.446;5.404;2023-06-22T06:58:41;101429.66;;;28.69;42.45
13050;BME280;6591;51.446;5.404;2023-06-22T07:01:09;101429.31;;;28.72;42.42
13050;BME280;6591;51.446;5.404;2023-06-22T07:03:36;101431.06;;;28.73;42.78
13050;BME280;6591;51.446;5.404;2023-06-22T07:06:04;101431.91;;;28.73;42.77
13050;BME280;6591;51.446;5.404;2023-06-22T07:08:31;101426.94;;;28.77;42.82
13050;BME280;6591;51.446;5.404;2023-06-22T07:10:58;101433.63;;;28.82;42.75
13050;BME280;6591;51.446;5.404;2023-06-22T07:13:25;101436.69;;;28.87;43.02
13050;BME280;6591;51.446;5.404;2023-06-22T07:15:52;101429.13;;;28.89;42.83
13050;BME280;6591;51.446;5.404;2023-06-22T07:18:20;101429.16;;;28.81;42.77
13050;BME280;6591;51.446;5.404;2023-06-22T07:20:47;101428.47;;;28.71;43.36
13050;BME280;6591;51.446;5.404;2023-06-22T07:23:14;101417.03;;;28.59;43.32
13050;BME280;6591;51.446;5.404;2023-06-22T07:25:41;101408.81;;;28.43;42.82
13050;BME280;6591;51.446;5.404;2023-06-22T07:28:09;101415.00;;;28.29;43.27
13050;BME280;6591;51.446;5.404;2023-06-22T07:30:36;101402.03;;;28.15;43.88
13050;BME280;6591;51.446;5.404;2023-06-22T07:33:03;101396.84;;;28.04;43.61
13050;BME280;6591;51.446;5.404;2023-06-22T07:35:34;101390.69;;;27.94;43.65
13050;BME280;6591;51.446;5.404;2023-06-22T07:38:01;101383.00;;;27.89;44.03
13050;BME280;6591;51.446;5.404;2023-06-22T07:40:32;101380.59;;;27.86;44.25
13050;BME280;6591;51.446;5.404;2023-06-22T07:42:59;101368.31;;;27.82;44.09
13050;BME280;6591;51.446;5.404;2023-06-22T07:45:26;101365.44;;;27.84;44.51
13050;BME280;6591;51.446;5.404;2023-06-22T07:47:53;101365.06;;;27.87;44.41
13050;BME280;6591;51.446;5.404;2023-06-22T07:50:21;101355.19;;;27.94;44.31
13050;BME280;6591;51.446;5.404;2023-06-22T07:52:48;101354.16;;;28.03;45.24
13050;BME280;6591;51.446;5.404;2023-06-22T07:55:15;101346.69;;;28.13;45.47
13050;BME280;6591;51.446;5.404;2023-06-22T07:57:42;101344.97;;;28.28;45.12
13050;BME280;6591;51.446;5.404;2023-06-22T08:00:11;101332.50;;;28.42;45.12
13050;BME280;6591;51.446;5.404;2023-06-22T08:02:44;101329.91;;;28.56;44.81
13050;BME280;6591;51.446;5.404;2023-06-22T08:05:14;101319.09;;;28.71;44.70
13050;BME280;6591;51.446;5.404;2023-06-22T08:07:49;101306.41;;;28.86;44.50
13050;BME280;6591;51.446;5.404;2023-06-22T08:10:17;101305.50;;;29.02;44.22
13050;BME280;6591;51.446;5.404;2023-06-22T08:12:44;101300.31;;;29.15;44.23
13050;BME280;6591;51.446;5.404;2023-06-22T08:15:11;101305.03;;;29.29;43.76
13050;BME280;6591;51.446;5.404;2023-06-22T08:17:39;101300.03;;;29.41;43.48
13050;BME280;6591;51.446;5.404;2023-06-22T08:20:08;101299.09;;;29.48;43.16
13050;BME280;6591;51.446;5.404;2023-06-22T08:22:40;101292.91;;;29.55;42.80
13050;BME280;6591;51.446;5.404;2023-06-22T08:25:09;101302.47;;;29.59;42.88
13050;BME280;6591;51.446;5.404;2023-06-22T08:27:37;101301.06;;;29.63;42.78
13050;BME280;6591;51.446;5.404;2023-06-22T08:30:06;101302.28;;;29.60;42.12
13050;BME280;6591;51.446;5.404;2023-06-22T08:32:33;101305.69;;;29.62;42.03
13050;BME280;6591;51.446;5.404;2023-06-22T08:35:01;101306.53;;;29.63;41.74
13050;BME280;6591;51.446;5.404;2023-06-22T08:37:28;101301.44;;;29.60;41.77
13050;BME280;6591;51.446;5.404;2023-06-22T08:40:05;101302.84;;;29.56;41.86
13050;BME280;6591;51.446;5.404;2023-06-22T08:42:32;101305.75;;;29.54;41.55
13050;BME280;6591;51.446;5.404;2023-06-22T08:45:00;101298.75;;;29.52;42.07
13050;BME280;6591;51.446;5.404;2023-06-22T08:47:28;101294.88;;;29.46;41.77
13050;BME280;6591;51.446;5.404;2023-06-22T08:49:55;101289.72;;;29.43;41.93
13050;BME280;6591;51.446;5.404;2023-06-22T08:52:24;101292.84;;;29.40;41.60
13050;BME280;6591;51.446;5.404;2023-06-22T08:54:51;101293.00;;;29.38;41.37
13050;BME280;6591;51.446;5.404;2023-06-22T08:57:18;101290.28;;;29.38;41.83
13050;BME280;6591;51.446;5.404;2023-06-22T08:59:45;101282.25;;;29.37;42.15
13050;BME280;6591;51.446;5.404;2023-06-22T09:02:13;101280.34;;;29.37;41.97
13050;BME280;6591;51.446;5.404;2023-06-22T09:04:40;101283.78;;;29.39;41.96
13050;BME280;6591;51.446;5.404;2023-06-22T09:07:08;101279.81;;;29.42;41.70
13050;BME280;6591;51.446;5.404;2023-06-22T09:09:35;101275.50;;;29.47;41.89
13050;BME280;6591;51.446;5.404;2023-06-22T09:12:03;101275.63;;;29.54;42.01
13050;BME280;6591;51.446;5.404;2023-06-22T09:14:30;101280.38;;;29.60;41.73
13050;BME280;6591;51.446;5.404;2023-06-22T09:16:57;101276.72;;;29.68;41.59
13050;BME280;6591;51.446;5.404;2023-06-22T09:19:24;101279.88;;;29.79;41.41
13050;BME280;6591;51.446;5.404;2023-06-22T09:21:51;101274.13;;;29.89;41.19
13050;BME280;6591;51.446;5.404;2023-06-22T09:24:18;101270.81;;;30.02;41.48
13050;BME280;6591;51.446;5.404;2023-06-22T09:26:45;101279.06;;;30.16;41.11
13050;BME280;6591;51.446;5.404;2023-06-22T09:29:12;101273.78;;;30.29;40.70
13050;BME280;6591;51.446;5.404;2023-06-22T09:31:39;101275.88;;;30.42;40.44
13050;BME280;6591;51.446;5.404;2023-06-22T09:34:07;101280.75;;;30.55;40.11
13050;BME280;6591;51.446;5.404;2023-06-22T09:36:34;101278.56;;;30.65;39.86
13050;BME280;6591;51.446;5.404;2023-06-22T09:39:02;101270.44;;;30.71;40.18
13050;BME280;6591;51.446;5.404;2023-06-22T09:41:33;101260.38;;;30.79;39.78
13050;BME280;6591;51.446;5.404;2023-06-22T09:44:00;101262.19;;;30.86;39.92
13050;BME280;6591;51.446;5.404;2023-06-22T09:46:27;101265.38;;;30.90;39.50
13050;BME280;6591;51.446;5.404;2023-06-22T09:48:54;101260.75;;;30.90;38.93
13050;BME280;6591;51.446;5.404;2023-06-22T09:51:22;101264.34;;;30.91;38.89
13050;BME280;6591;51.446;5.404;2023-06-22T09:53:51;101264.16;;;30.92;39.25
13050;BME280;6591;51.446;5.404;2023-06-22T09:56:20;101264.16;;;30.92;39.00
13050;BME280;6591;51.446;5.404;2023-06-22T09:58:47;101261.78;;;30.89;39.03
13050;BME280;6591;51.446;5.404;2023-06-22T10:01:18;101263.03;;;30.87;38.68
13050;BME280;6591;51.446;5.404;2023-06-22T10:03:47;101257.06;;;30.83;38.98
13050;BME280;6591;51.446;5.404;2023-06-22T10:06:15;101262.09;;;30.80;38.46
13050;BME280;6591;51.446;5.404;2023-06-22T10:08:42;101262.00;;;30.73;38.43
13050;BME280;6591;51.446;5.404;2023-06-22T10:11:09;101261.72;;;30.68;38.74
13050;BME280;6591;51.446;5.404;2023-06-22T10:13:36;101265.44;;;30.60;38.32
13050;BME280;6591;51.446;5.404;2023-06-22T10:16:03;101266.63;;;30.43;38.54
13050;BME280;6591;51.446;5.404;2023-06-22T10:18:30;101265.06;;;30.26;38.88
13050;BME280;6591;51.446;5.404;2023-06-22T10:20:57;101270.25;;;30.06;39.47
13050;BME280;6591;51.446;5.404;2023-06-22T10:23:24;101274.53;;;29.86;39.79
13050;BME280;6591;51.446;5.404;2023-06-22T10:25:52;101282.00;;;29.69;39.88
13050;BME280;6591;51.446;5.404;2023-06-22T10:28:19;101281.97;;;29.55;40.34
13050;BME280;6591;51.446;5.404;2023-06-22T10:30:46;101278.13;;;29.41;40.37
13050;BME280;6591;51.446;5.404;2023-06-22T10:33:13;101289.63;;;29.28;40.78
13050;BME280;6591;51.446;5.404;2023-06-22T10:35:40;101292.13;;;29.15;41.13
13050;BME280;6591;51.446;5.404;2023-06-22T10:38:07;101297.13;;;29.03;40.97
13050;BME280;6591;51.446;5.404;2023-06-22T10:40:35;101296.34;;;28.87;41.17
13050;BME280;6591;51.446;5.404;2023-06-22T10:43:02;101308.31;;;28.70;42.13
13050;BME280;6591;51.446;5.404;2023-06-22T10:45:29;101311.47;;;28.50;42.10
13050;BME280;6591;51.446;5.404;2023-06-22T10:47:57;101317.13;;;28.33;42.98
13050;BME280;6591;51.446;5.404;2023-06-22T10:50:25;101316.28;;;28.16;42.84
13050;BME280;6591;51.446;5.404;2023-06-22T10:52:54;101308.41;;;27.97;43.49
13050;BME280;6591;51.446;5.404;2023-06-22T10:55:24;101312.34;;;27.78;43.69
13050;BME280;6591;51.446;5.404;2023-06-22T10:57:51;101313.50;;;27.59;44.34
13050;BME280;6591;51.446;5.404;2023-06-22T11:00:19;101311.91;;;27.40;44.83
13050;BME280;6591;51.446;5.404;2023-06-22T11:02:46;101315.78;;;27.22;45.35
13050;BME280;6591;51.446;5.404;2023-06-22T11:05:14;101312.81;;;27.07;46.28
13050;BME280;6591;51.446;5.404;2023-06-22T11:07:44;101313.97;;;26.96;46.99
13050;BME280;6591;51.446;5.404;2023-06-22T11:10:13;101306.06;;;26.85;46.60
13050;BME280;6591;51.446;5.404;2023-06-22T11:12:40;101306.19;;;26.76;47.24
13050;BME280;6591;51.446;5.404;2023-06-22T11:15:09;101318.22;;;26.65;47.55
13050;BME280;6591;51.446;5.404;2023-06-22T11:17:36;101333.16;;;26.53;47.86
13050;BME280;6591;51.446;5.404;2023-06-22T11:20:05;101331.94;;;26.47;47.73
13050;BME280;6591;51.446;5.404;2023-06-22T11:22:40;101331.38;;;26.44;48.43
13050;BME280;6591;51.446;5.404;2023-06-22T11:25:08;101330.69;;;26.42;48.45
13050;BME280;6591;51.446;5.404;2023-06-22T11:27:36;101325.75;;;26.37;48.89
13050;BME280;6591;51.446;5.404;2023-06-22T11:30:04;101322.25;;;26.27;49.35
13050;BME280;6591;51.446;5.404;2023-06-22T11:32:33;101332.34;;;26.17;49.77
13050;BME280;6591;51.446;5.404;2023-06-22T11:35:01;101323.13;;;26.10;50.69
13050;BME280;6591;51.446;5.404;2023-06-22T11:37:28;101310.28;;;26.02;51.40
13050;BME280;6591;51.446;5.404;2023-06-22T11:39:55;101289.44;;;25.93;52.10
13050;BME280;6591;51.446;5.404;2023-06-22T11:42:32;101275.09;;;25.83;52.80
13050;BME280;6591;51.446;5.404;2023-06-22T11:44:59;101272.47;;;25.73;53.85
13050;BME280;6591;51.446;5.404;2023-06-22T11:47:26;101270.22;;;25.69;54.34
13050;BME280;6591;51.446;5.404;2023-06-22T11:49:53;101263.53;;;25.63;54.39
13050;BME280;6591;51.446;5.404;2023-06-22T11:52:21;101253.13;;;25.59;54.87
13050;BME280;6591;51.446;5.404;2023-06-22T11:54:48;101257.09;;;25.55;55.33
13050;BME280;6591;51.446;5.404;2023-06-22T11:57:15;101256.44;;;25.53;55.16
13050;BME280;6591;51.446;5.404;2023-06-22T11:59:42;101255.56;;;25.52;55.54
13050;BME280;6591;51.446;5.404;2023-06-22T12:02:09;101247.56;;;25.51;55.85
13050;BME280;6591;51.446;5.404;2023-06-22T12:04:37;101241.09;;;25.52;55.57
13050;BME280;6591;51.446;5.404;2023-06-22T12:07:04;101234.81;;;25.51;56.38
13050;BME280;6591;51.446;5.404;2023-06-22T12:09:31;101241.97;;;25.52;56.47
13050;BME280;6591;51.446;5.404;2023-06-22T12:11:58;101241.81;;;25.54;56.38
13050;BME280;6591;51.446;5.404;2023-06-22T12:14:25;101236.78;;;25.59;56.74
13050;BME280;6591;51.446;5.404;2023-06-22T12:16:53;101238.19;;;25.63;56.68
13050;BME280;6591;51.446;5.404;2023-06-22T12:19:20;101234.13;;;25.67;57.21
13050;BME280;6591;51.446;5.404;2023-06-22T12:21:47;101234.66;;;25.70;57.31
13050;BME280;6591;51.446;5.404;2023-06-22T12:24:14;101230.78;;;25.73;56.97
13050;BME280;6591;51.446;5.404;2023-06-22T12:26:41;101228.91;;;25.73;57.41
13050;BME280;6591;51.446;5.404;2023-06-22T12:29:09;101231.47;;;25.75;57.86
13050;BME280;6591;51.446;5.404;2023-06-22T12:31:36;101219.91;;;25.73;57.86
13050;BME280;6591;51.446;5.404;2023-06-22T12:34:05;101221.06;;;25.70;57.82
13050;BME280;6591;51.446;5.404;2023-06-22T12:36:33;101228.34;;;25.70;58.07
13050;BME280;6591;51.446;5.404;2023-06-22T12:39:00;101225.81;;;25.68;58.09
13050;BME280;6591;51.446;5.404;2023-06-22T12:41:27;101220.84;;;25.64;58.18
13050;BME280;6591;51.446;5.404;2023-06-22T12:43:54;101224.88;;;25.60;57.98
13050;BME280;6591;51.446;5.404;2023-06-22T12:46:21;101217.19;;;25.55;58.07
13050;BME280;6591;51.446;5.404;2023-06-22T12:48:49;101213.91;;;25.52;58.06
13050;BME280;6591;51.446;5.404;2023-06-22T12:51:22;101203.50;;;25.47;58.20
13050;BME280;6591;51.446;5.404;2023-06-22T12:53:50;101200.22;;;25.44;58.25
13050;BME280;6591;51.446;5.404;2023-06-22T12:56:17;101188.28;;;25.37;58.41
13050;BME280;6591;51.446;5.404;2023-06-22T12:58:44;101191.28;;;25.33;58.26
13050;BME280;6591;51.446;5.404;2023-06-22T13:01:11;101196.19;;;25.30;57.87
13050;BME280;6591;51.446;5.404;2023-06-22T13:03:40;101204.97;;;25.24;58.09
13050;BME280;6591;51.446;5.404;2023-06-22T13:06:07;101202.44;;;25.22;58.31
13050;BME280;6591;51.446;5.404;2023-06-22T13:08:34;101210.59;;;25.22;58.31